الصفحة الرئيسية
METAR-TAF:

METAR-TAF

مطار :

تارفيزيو, إيطاليا

دائرة عرض: 46-30N, خط طول: 013-35E, ارتفاع: 777 متر

مراقبة الطقس الحالي

تاريخ ووقت الإصدار 2ساعات و 21 دقيقة قبل الساعة 17:55UTC
رياح هادئة
درجة الحرارة 12°درجة مئوية
الرطوبة 76%
ضغط 1021 hPa
الرؤية 10 كم أو أكثر
غيوم مفككة على ارتفاع 3000 قدم

METAR: LIVO 291755Z 00000KT 9999 BKN030 12/08 Q1021 RMK BKN VIS MIN 9999

زمن: 22:16 (20:16 UTC)


TAF: مفقودة

أرصاد الطقس والتوقعات من أكثر من 4000 مطار (تقارير الطقس للمطار METAR والتنبؤ بالطقس بالمطارTAF).

المحطات المتاحة هي النقط الصفراء والحمراء على الخريطة.

حرك المؤشر فوق النقطة لمعرفة اسم المحطة.

ثم انقر لمعرفة أرصاد وتوقعات الطقس.

لتغيير الخارطة: اضغط على الأزرار الخضراء مع رمز الصليب الأسود للتكبير. على الزر الأخضر مع شرطة للتصغير، أو على الأسهم الخضراء للخرائط المجاورة.


METAR-TAF: